Time;durP1;ratioP1;P1;durP2;ratioP2;P2;SDS_P1;SDS_P2;PMS_P1;PMS_P2;Temp;Humidity;BMP_temperature;BMP_pressure;BME280_temperature;BME280_humidity;BME280_pressure;Samples;Min_cycle;Max_cycle;Signal;HPM_P1;HPM_P2
2023/10/06 00:00:53;;;;;;;12.55;3.25;;;20.90;99.90;;;;;;5056336;28;20495;-76
2023/10/06 00:03:20;;;;;;;8.40;3.00;;;21.00;99.90;;;;;;5055020;28;20036;-76
2023/10/06 00:05:50;;;;;;;11.60;3.85;;;20.70;99.90;;;;;;5039374;28;20036;-75
2023/10/06 00:08:17;;;;;;;9.52;3.05;;;20.60;99.90;;;;;;5055009;28;20515;-75
2023/10/06 00:10:51;;;;;;;8.23;3.13;;;21.00;99.90;;;;;;5055657;28;20630;-76
2023/10/06 00:13:28;;;;;;;10.30;3.67;;;20.80;99.90;;;;;;5038652;28;20055;-76
2023/10/06 00:15:55;;;;;;;10.45;3.13;;;20.50;99.90;;;;;;5056039;28;20040;-76
2023/10/06 00:18:23;;;;;;;12.65;3.05;;;20.60;99.90;;;;;;5055856;28;20040;-76
2023/10/06 00:20:49;;;;;;;7.63;2.72;;;21.10;99.90;;;;;;5055704;28;20044;-76
2023/10/06 00:23:22;;;;;;;8.90;3.05;;;20.40;99.90;;;;;;5038980;28;20399;-76
2023/10/06 00:25:54;;;;;;;7.38;3.10;;;20.80;99.90;;;;;;5055603;28;20048;-75
2023/10/06 00:28:25;;;;;;;12.00;3.43;;;20.90;99.90;;;;;;5055531;28;20105;-75
2023/10/06 00:31:05;;;;;;;12.60;3.30;;;21.00;99.90;;;;;;5055668;28;20116;-76
2023/10/06 00:33:37;;;;;;;8.35;3.78;;;20.90;99.90;;;;;;5055945;28;20154;-76
2023/10/06 00:36:19;;;;;;;12.02;3.92;;;20.70;99.90;;;;;;5055499;28;20105;-76
2023/10/06 00:38:46;;;;;;;10.27;3.25;;;20.80;99.90;;;;;;5055707;28;20454;-75
2023/10/06 00:41:15;;;;;;;11.13;3.38;;;20.90;99.90;;;;;;5055496;28;20072;-76
2023/10/06 00:43:43;;;;;;;12.20;3.38;;;21.00;99.90;;;;;;5055443;28;20028;-76
2023/10/06 00:46:14;;;;;;;7.25;3.13;;;20.70;99.90;;;;;;5055458;28;20033;-76
2023/10/06 00:48:42;;;;;;;9.07;3.55;;;20.80;99.90;;;;;;5055346;28;20044;-76
2023/10/06 00:51:12;;;;;;;10.35;3.17;;;20.50;99.90;;;;;;5055495;28;20400;-76
2023/10/06 00:53:39;;;;;;;9.07;4.25;;;20.90;99.90;;;;;;5055260;28;20044;-76
2023/10/06 00:56:14;;;;;;;11.70;4.30;;;20.90;99.90;;;;;;5038614;28;20040;-76
2023/10/06 00:58:41;;;;;;;7.75;3.42;;;20.80;99.90;;;;;;5055167;28;20048;-75
2023/10/06 01:01:08;;;;;;;14.70;3.72;;;20.80;99.90;;;;;;5038570;28;20519;-76
2023/10/06 01:03:42;;;;;;;11.00;3.95;;;20.40;99.90;;;;;;5055940;28;20399;-77
2023/10/06 01:06:22;;;;;;;10.57;3.70;;;20.70;99.90;;;;;;5040328;28;20032;-78
2023/10/06 01:08:55;;;;;;;15.90;3.90;;;20.80;99.90;;;;;;5056800;28;20496;-78
2023/10/06 01:11:26;;;;;;;10.13;3.75;;;20.40;99.90;;;;;;5056537;28;20128;-79
2023/10/06 01:13:55;;;;;;;10.63;3.85;;;20.80;99.90;;;;;;5040059;28;20090;-78
2023/10/06 01:16:34;;;;;;;13.48;4.00;;;20.50;99.90;;;;;;5039862;28;20533;-78
2023/10/06 01:19:47;;;;;;;11.85;4.25;;;20.70;99.90;;;;;;5039142;28;20377;-76
2023/10/06 01:21:48;;;;;;;14.52;4.05;;;20.90;99.90;;;;;;5040663;28;20079;-75
2023/10/06 01:24:28;;;;;;;13.55;5.10;;;20.50;99.90;;;;;;5054591;28;20041;-76
2023/10/06 01:27:08;;;;;;;9.65;3.75;;;20.40;99.90;;;;;;5038086;28;20127;-76
2023/10/06 01:29:37;;;;;;;13.98;4.68;;;20.90;99.90;;;;;;5054602;28;20079;-75
2023/10/06 01:32:06;;;;;;;10.60;5.10;;;20.30;99.90;;;;;;5054397;28;20045;-76
2023/10/06 01:34:38;;;;;;;9.68;4.13;;;20.60;99.90;;;;;;5054396;28;20040;-75
2023/10/06 01:37:09;;;;;;;12.77;4.60;;;20.40;99.90;;;;;;5054274;28;20051;-76
2023/10/06 01:39:35;;;;;;;9.90;4.43;;;20.70;99.90;;;;;;5054433;28;20072;-76
2023/10/06 01:42:11;;;;;;;12.23;4.72;;;20.60;99.90;;;;;;5054043;28;20111;-76
2023/10/06 01:44:37;;;;;;;10.55;4.50;;;20.50;99.90;;;;;;5054312;28;20036;-76
2023/10/06 01:47:04;;;;;;;14.55;4.95;;;20.80;99.90;;;;;;5054348;28;20044;-76
2023/10/06 01:49:31;;;;;;;12.95;5.22;;;20.70;99.90;;;;;;5054087;28;20059;-76
2023/10/06 01:51:57;;;;;;;11.65;5.10;;;21.10;99.90;;;;;;5054076;28;20047;-76
2023/10/06 01:54:27;;;;;;;10.85;5.30;;;20.90;99.90;;;;;;5037368;28;20033;-76
2023/10/06 01:56:54;;;;;;;15.10;4.57;;;21.00;99.90;;;;;;5054021;28;20053;-76
2023/10/06 01:59:20;;;;;;;14.70;4.95;;;20.80;99.90;;;;;;5037209;28;20037;-76
2023/10/06 02:01:46;;;;;;;15.38;5.53;;;20.70;99.90;;;;;;5053766;28;20170;-76
2023/10/06 02:04:14;;;;;;;9.68;5.38;;;;;;;;;;5053757;28;20068;-77
2023/10/06 02:06:44;;;;;;;12.20;5.28;;;20.60;99.90;;;;;;5054170;28;20123;-76
2023/10/06 02:09:17;;;;;;;18.30;6.05;;;20.60;99.90;;;;;;5037413;28;20116;-77
2023/10/06 02:11:44;;;;;;;15.88;6.20;;;20.90;99.90;;;;;;5054071;28;20037;-76
2023/10/06 02:14:11;;;;;;;14.75;5.38;;;20.50;99.90;;;;;;5037157;28;20048;-76
2023/10/06 02:16:37;;;;;;;34.30;7.18;;;20.90;99.90;;;;;;5037220;28;20044;-76
2023/10/06 02:19:08;;;;;;;18.42;5.78;;;20.80;99.90;;;;;;5037486;28;20518;-76
2023/10/06 02:21:35;;;;;;;10.90;5.25;;;20.80;99.90;;;;;;5053647;28;20495;-76
2023/10/06 02:24:04;;;;;;;16.65;6.60;;;;;;;;;;5051722;28;20040;-76
2023/10/06 02:26:36;;;;;;;9.20;5.25;;;21.00;99.90;;;;;;5031504;28;20125;-76
2023/10/06 02:29:02;;;;;;;11.55;5.03;;;20.50;99.90;;;;;;5033360;28;20048;-77
2023/10/06 02:31:28;;;;;;;16.65;4.90;;;20.60;99.90;;;;;;5051075;28;20033;-76
2023/10/06 02:33:54;;;;;;;13.85;5.20;;;20.50;99.90;;;;;;5016965;28;20083;-76
2023/10/06 02:36:22;;;;;;;14.45;5.45;;;20.40;99.90;;;;;;5017284;28;20033;-76
2023/10/06 02:38:52;;;;;;;10.40;4.22;;;20.40;99.90;;;;;;5033602;28;20041;-76
2023/10/06 02:41:19;;;;;;;12.90;6.10;;;20.70;99.90;;;;;;5033447;28;20029;-77
2023/10/06 02:43:49;;;;;;;13.07;4.55;;;21.00;99.90;;;;;;5033492;28;20032;-76
2023/10/06 02:46:16;;;;;;;11.93;4.72;;;21.20;99.90;;;;;;5033612;28;20449;-76
2023/10/06 02:48:48;;;;;;;12.85;4.50;;;20.90;99.90;;;;;;5033616;28;20076;-76
2023/10/06 02:51:47;;;;;;;11.55;4.55;;;21.10;99.90;;;;;;5033386;28;20051;-77
2023/10/06 02:56:43;;;;;;;13.27;4.38;;;20.50;99.90;;;;;;5033747;28;20435;-77
2023/10/06 02:59:20;;;;;;;11.73;3.90;;;;;;;;;;5033500;28;20389;-76
2023/10/06 03:02:00;;;;;;;14.82;5.65;;;20.70;99.90;;;;;;5033181;28;20504;-77
2023/10/06 03:04:27;;;;;;;13.35;4.88;;;20.50;99.90;;;;;;5033535;28;20052;-76
2023/10/06 03:06:55;;;;;;;11.65;4.65;;;20.60;99.90;;;;;;5033371;28;20083;-76
2023/10/06 03:09:21;;;;;;;14.73;5.35;;;20.60;99.90;;;;;;5015713;28;20045;-76
2023/10/06 03:11:50;;;;;;;10.38;4.53;;;20.90;99.90;;;;;;5032683;28;20087;-76
2023/10/06 03:14:24;;;;;;;14.20;5.47;;;20.80;99.90;;;;;;5016981;28;20556;-76
2023/10/06 03:16:51;;;;;;;14.80;5.38;;;20.50;99.90;;;;;;5033262;28;20539;-76
2023/10/06 03:19:23;;;;;;;13.20;5.90;;;20.30;99.90;;;;;;5033548;28;20403;-79
2023/10/06 03:21:50;;;;;;;17.33;6.53;;;20.40;99.90;;;;;;5033290;28;20045;-76
2023/10/06 03:24:25;;;;;;;25.35;8.73;;;;;;;;;;5033172;28;20037;-76
2023/10/06 03:26:51;;;;;;;11.43;5.82;;;20.30;99.90;;;;;;5033272;28;20041;-76
2023/10/06 03:29:28;;;;;;;16.80;6.65;;;20.60;99.90;;;;;;5016712;28;20075;-76
2023/10/06 03:31:56;;;;;;;14.25;6.93;;;;;;;;;;5033429;28;20053;-76
2023/10/06 03:34:23;;;;;;;23.27;8.40;;;20.40;99.90;;;;;;5016977;28;20176;-76
2023/10/06 03:36:52;;;;;;;14.57;7.50;;;20.20;99.90;;;;;;5033328;28;20083;-76
2023/10/06 03:39:30;;;;;;;17.67;7.78;;;20.20;99.90;;;;;;5035027;28;20073;-77
2023/10/06 03:42:00;;;;;;;22.73;9.35;;;20.80;99.90;;;;;;5036558;28;20078;-76
2023/10/06 03:44:26;;;;;;;19.15;8.88;;;20.90;99.90;;;;;;5020389;28;20044;-76
2023/10/06 03:46:53;;;;;;;19.13;8.63;;;21.00;99.90;;;;;;5036620;28;20037;-76
2023/10/06 03:49:19;;;;;;;18.25;9.20;;;;;;;;;;5036463;28;20075;-76
2023/10/06 03:51:45;;;;;;;23.42;9.75;;;20.60;99.90;;;;;;5036335;28;20067;-76
2023/10/06 03:54:10;;;;;;;21.75;9.43;;;20.60;99.90;;;;;;5019993;28;20647;-76
2023/10/06 03:56:36;;;;;;;16.83;8.68;;;20.90;99.90;;;;;;5036450;28;20036;-76
2023/10/06 03:59:12;;;;;;;17.65;9.00;;;20.10;99.90;;;;;;5036575;28;20033;-76
2023/10/06 04:01:38;;;;;;;21.83;9.18;;;20.30;99.90;;;;;;5036228;28;20558;-76
2023/10/06 04:04:05;;;;;;;25.13;9.32;;;20.80;99.90;;;;;;5020054;28;20033;-76
2023/10/06 04:06:35;;;;;;;22.00;9.82;;;20.40;99.90;;;;;;5019610;28;20461;-76
2023/10/06 04:09:01;;;;;;;18.65;9.10;;;20.50;99.90;;;;;;5035422;28;20072;-76
2023/10/06 04:11:29;;;;;;;21.15;9.85;;;21.10;99.90;;;;;;5035092;28;20033;-76
2023/10/06 04:13:55;;;;;;;19.85;8.05;;;20.60;99.90;;;;;;5035130;28;20044;-76
2023/10/06 04:16:23;;;;;;;21.75;8.70;;;20.80;99.90;;;;;;5036417;28;20036;-76
2023/10/06 04:18:49;;;;;;;18.70;8.73;;;21.10;99.90;;;;;;5035875;28;20120;-76
2023/10/06 04:21:18;;;;;;;14.38;7.45;;;20.70;99.90;;;;;;5018449;28;20041;-75
2023/10/06 04:23:44;;;;;;;15.77;7.97;;;20.30;99.90;;;;;;5035277;28;20059;-76
2023/10/06 04:26:11;;;;;;;16.30;7.32;;;20.20;99.90;;;;;;5035324;28;20119;-77
2023/10/06 04:28:37;;;;;;;16.90;8.20;;;20.30;99.90;;;;;;5035359;28;20580;-76
2023/10/06 04:31:05;;;;;;;21.08;7.97;;;21.00;99.90;;;;;;5035348;28;20056;-76
2023/10/06 04:33:32;;;;;;;20.77;8.63;;;20.30;99.90;;;;;;5035457;28;20049;-76
2023/10/06 04:36:07;;;;;;;19.95;7.18;;;20.40;99.90;;;;;;5035761;28;20045;-76
2023/10/06 04:38:37;;;;;;;22.23;7.97;;;20.80;99.90;;;;;;5035462;28;20053;-76
2023/10/06 04:41:08;;;;;;;19.08;6.43;;;20.60;99.90;;;;;;5018962;28;20065;-77
2023/10/06 04:43:44;;;;;;;16.92;6.93;;;20.40;99.90;;;;;;5035400;28;20029;-76
2023/10/06 04:46:10;;;;;;;15.07;6.80;;;20.60;99.90;;;;;;5018473;28;20099;-75
2023/10/06 04:48:36;;;;;;;15.05;7.05;;;21.10;99.90;;;;;;5035529;28;20531;-76
2023/10/06 04:51:06;;;;;;;25.73;7.00;;;20.50;99.90;;;;;;5034022;28;20075;-76
2023/10/06 04:53:36;;;;;;;12.45;5.85;;;;;;;;;;5035292;28;20037;-76
2023/10/06 04:56:06;;;;;;;11.75;6.15;;;20.90;99.90;;;;;;5018902;28;20090;-76
2023/10/06 04:58:33;;;;;;;20.52;6.80;;;20.60;99.90;;;;;;5035285;28;20479;-76
2023/10/06 05:01:02;;;;;;;17.73;6.90;;;21.00;99.90;;;;;;5034882;28;20084;-76
2023/10/06 05:03:38;;;;;;;17.00;6.68;;;21.20;99.90;;;;;;5035323;28;20396;-76
2023/10/06 05:06:17;;;;;;;19.85;6.18;;;20.70;99.90;;;;;;5035587;28;20049;-76
2023/10/06 05:08:46;;;;;;;14.50;5.65;;;21.00;99.90;;;;;;5019121;28;20048;-76
2023/10/06 05:11:14;;;;;;;15.00;5.47;;;21.20;99.90;;;;;;5018988;28;20049;-77
2023/10/06 05:13:40;;;;;;;12.80;6.80;;;20.40;99.90;;;;;;5019150;28;20497;-77
2023/10/06 05:16:05;;;;;;;11.27;5.65;;;21.00;99.90;;;;;;5035196;28;20124;-76
2023/10/06 05:18:33;;;;;;;12.02;5.88;;;21.20;99.90;;;;;;5018428;28;20045;-75
2023/10/06 05:20:58;;;;;;;13.25;5.93;;;20.50;99.90;;;;;;5034999;28;20041;-76
2023/10/06 05:23:24;;;;;;;17.15;5.57;;;20.40;99.90;;;;;;5034582;28;20044;-76
2023/10/06 05:25:50;;;;;;;14.63;6.95;;;20.50;99.90;;;;;;5018176;28;20072;-76
2023/10/06 05:28:18;;;;;;;17.83;6.32;;;21.20;99.90;;;;;;5034639;28;20063;-76
2023/10/06 05:30:44;;;;;;;14.00;5.95;;;20.50;99.90;;;;;;5035386;28;20037;-77
2023/10/06 05:33:11;;;;;;;20.77;7.50;;;20.90;99.90;;;;;;5034899;28;20500;-76
2023/10/06 05:35:41;;;;;;;13.82;5.72;;;21.10;99.90;;;;;;5034797;28;20072;-76
2023/10/06 05:38:15;;;;;;;20.20;6.43;;;20.50;99.90;;;;;;5034156;28;20088;-76
2023/10/06 05:40:46;;;;;;;18.08;6.15;;;20.90;99.90;;;;;;5034448;28;20037;-76
2023/10/06 05:43:12;;;;;;;14.40;6.38;;;21.20;99.90;;;;;;5034854;28;20037;-76
2023/10/06 05:45:56;;;;;;;21.55;6.30;;;20.60;99.90;;;;;;5034218;28;20091;-76
2023/10/06 05:48:23;;;;;;;17.58;6.35;;;21.10;99.90;;;;;;5017788;28;20094;-77
2023/10/06 05:50:48;;;;;;;14.73;7.28;;;20.70;99.90;;;;;;5034294;28;20512;-76
2023/10/06 05:53:22;;;;;;;15.52;6.30;;;21.20;99.90;;;;;;5034570;28;20084;-77
2023/10/06 05:55:52;;;;;;;16.35;6.32;;;21.10;99.90;;;;;;5018136;28;20080;-77
2023/10/06 05:58:23;;;;;;;18.75;6.90;;;21.30;99.90;;;;;;5030493;28;20115;-77
2023/10/06 06:00:52;;;;;;;21.80;7.60;;;20.90;99.90;;;;;;5054141;28;20040;-77
2023/10/06 06:03:23;;;;;;;22.27;7.13;;;20.70;99.90;;;;;;5053897;28;20164;-76
2023/10/06 06:05:50;;;;;;;25.10;7.85;;;20.80;99.90;;;;;;5054561;28;20089;-77
2023/10/06 06:08:16;;;;;;;22.23;7.43;;;21.30;99.90;;;;;;5061164;28;20052;-76
2023/10/06 06:10:42;;;;;;;17.10;6.90;;;;;;;;;;5052071;28;20089;-76
2023/10/06 06:13:08;;;;;;;23.30;7.90;;;;;;;;;;5048316;28;20407;-76
2023/10/06 06:15:35;;;;;;;25.80;7.50;;;21.50;99.90;;;;;;5044637;28;20586;-75
2023/10/06 06:18:01;;;;;;;16.60;6.70;;;21.30;99.90;;;;;;5031844;28;20101;-76
2023/10/06 06:20:30;;;;;;;16.35;7.75;;;21.40;99.90;;;;;;5035607;28;20056;-76
2023/10/06 06:22:59;;;;;;;16.42;6.95;;;21.40;99.90;;;;;;5042776;28;20601;-76
2023/10/06 06:25:28;;;;;;;14.68;6.93;;;21.00;99.90;;;;;;5031533;28;20089;-76
2023/10/06 06:27:59;;;;;;;15.80;6.30;;;20.60;99.90;;;;;;5040926;28;20519;-76
2023/10/06 06:30:25;;;;;;;21.13;7.22;;;21.60;99.90;;;;;;5016579;28;20124;-76
2023/10/06 06:32:52;;;;;;;22.45;6.90;;;21.30;99.90;;;;;;5031840;28;20033;-76
2023/10/06 06:35:22;;;;;;;20.35;6.65;;;20.80;99.90;;;;;;5033604;28;20499;-76
2023/10/06 06:37:51;;;;;;;19.15;7.53;;;;;;;;;;5022226;28;20033;-77
2023/10/06 06:40:20;;;;;;;17.73;7.43;;;20.90;99.90;;;;;;5041619;28;20492;-76
2023/10/06 06:42:51;;;;;;;16.60;6.78;;;21.50;99.90;;;;;;5037747;28;20064;-76
2023/10/06 06:45:17;;;;;;;21.35;6.95;;;21.40;99.90;;;;;;5039690;28;20488;-77
2023/10/06 06:47:43;;;;;;;17.35;6.40;;;21.00;99.90;;;;;;5031134;28;20135;-77
2023/10/06 06:50:12;;;;;;;19.30;6.22;;;20.80;99.90;;;;;;5039662;28;20044;-77
2023/10/06 06:52:38;;;;;;;16.13;6.30;;;;;;;;;;5038068;28;20588;-76
2023/10/06 06:55:11;;;;;;;20.27;6.28;;;;;;;;;;5037297;28;20083;-77
2023/10/06 06:57:37;;;;;;;17.95;6.65;;;;;;;;;;5038295;28;20098;-77
2023/10/06 07:00:09;;;;;;;13.50;7.22;;;;;;;;;;5035516;28;20119;-76
2023/10/06 07:02:34;;;;;;;17.92;6.60;;;21.50;99.90;;;;;;5020127;28;20033;-76
2023/10/06 07:05:00;;;;;;;19.27;7.00;;;21.50;99.90;;;;;;5045531;28;20042;-80
2023/10/06 07:07:26;;;;;;;21.95;8.43;;;21.40;99.90;;;;;;5037297;28;20047;-77
2023/10/06 07:09:52;;;;;;;20.88;7.78;;;21.00;99.90;;;;;;5030257;28;20047;-76
2023/10/06 07:12:18;;;;;;;18.40;6.93;;;20.90;99.90;;;;;;5037952;28;20515;-76
2023/10/06 07:14:44;;;;;;;15.60;7.00;;;21.10;99.90;;;;;;5032362;28;20420;-77
2023/10/06 07:17:09;;;;;;;20.48;7.45;;;20.90;99.90;;;;;;5052067;28;20036;-76
2023/10/06 07:19:35;;;;;;;16.88;7.47;;;21.40;99.90;;;;;;5041479;28;20068;-77
2023/10/06 07:22:01;;;;;;;19.83;6.90;;;21.00;99.90;;;;;;5036049;28;20044;-76
2023/10/06 07:24:26;;;;;;;19.27;7.40;;;21.60;99.90;;;;;;5040691;28;20534;-76
2023/10/06 07:26:52;;;;;;;18.17;8.13;;;21.20;99.90;;;;;;5034446;28;20037;-76
2023/10/06 07:29:18;;;;;;;19.55;7.70;;;20.80;99.90;;;;;;5031138;28;20068;-76
2023/10/06 07:31:43;;;;;;;16.35;7.82;;;21.60;99.90;;;;;;5037685;28;20142;-77
2023/10/06 07:34:11;;;;;;;16.95;7.80;;;;;;;;;;5053525;28;20585;-76
2023/10/06 07:36:37;;;;;;;20.45;8.93;;;20.80;99.90;;;;;;5056351;28;20036;-76
2023/10/06 07:39:08;;;;;;;17.63;8.70;;;21.80;99.90;;;;;;5053384;28;20048;-77
2023/10/06 07:41:36;;;;;;;18.45;8.23;;;;;;;;;;5055825;28;20111;-76
2023/10/06 07:44:02;;;;;;;19.15;8.13;;;20.70;99.90;;;;;;5055114;28;20049;-76
2023/10/06 07:46:29;;;;;;;16.48;8.25;;;21.00;99.90;;;;;;5056658;28;20043;-78
2023/10/06 07:48:56;;;;;;;20.85;7.93;;;21.50;99.90;;;;;;5055596;28;20051;-77
2023/10/06 07:51:21;;;;;;;17.33;8.35;;;21.60;99.90;;;;;;5054782;28;20116;-77
2023/10/06 07:53:48;;;;;;;20.85;8.52;;;21.00;99.90;;;;;;5056317;28;20128;-77
2023/10/06 07:56:14;;;;;;;16.02;8.75;;;21.30;99.90;;;;;;5039907;28;20040;-76
2023/10/06 07:58:43;;;;;;;22.05;9.05;;;22.10;99.90;;;;;;5039686;28;20094;-77
2023/10/06 08:01:10;;;;;;;23.52;9.45;;;21.40;99.90;;;;;;5039433;28;20032;-77
2023/10/06 08:03:38;;;;;;;25.02;9.25;;;21.90;99.90;;;;;;5056589;28;20067;-77
2023/10/06 08:06:16;;;;;;;16.05;7.90;;;21.90;99.90;;;;;;5056817;28;20495;-77
2023/10/06 08:08:42;;;;;;;17.98;8.90;;;21.60;99.90;;;;;;5057231;28;20040;-77
2023/10/06 08:11:09;;;;;;;18.80;8.75;;;21.40;99.90;;;;;;5056651;28;20569;-77
2023/10/06 08:13:35;;;;;;;22.63;8.40;;;22.10;99.90;;;;;;5055947;28;20048;-77
2023/10/06 08:16:02;;;;;;;14.90;7.75;;;22.20;99.90;;;;;;5055489;28;20098;-77
2023/10/06 08:18:29;;;;;;;24.13;8.30;;;21.60;99.90;;;;;;5055300;28;20043;-77
2023/10/06 08:20:55;;;;;;;19.52;7.88;;;22.10;99.90;;;;;;5055265;28;20036;-76
2023/10/06 08:23:21;;;;;;;20.98;8.23;;;22.30;99.90;;;;;;5073440;28;20572;-76
2023/10/06 08:25:47;;;;;;;20.13;8.05;;;22.40;99.90;;;;;;5053665;28;20119;-77
2023/10/06 08:28:12;;;;;;;17.85;8.35;;;22.20;99.90;;;;;;5073541;28;20036;-76
2023/10/06 08:30:38;;;;;;;25.60;8.32;;;21.60;99.90;;;;;;5038422;28;20036;-76
2023/10/06 08:33:08;;;;;;;21.65;8.02;;;22.10;99.90;;;;;;5039335;28;20041;-76
2023/10/06 08:35:35;;;;;;;18.98;7.75;;;21.90;99.90;;;;;;5053726;28;20049;-76
2023/10/06 08:38:01;;;;;;;21.17;8.20;;;21.90;99.90;;;;;;5038662;28;20068;-76
2023/10/06 08:40:29;;;;;;;21.73;7.97;;;22.40;99.90;;;;;;5055621;28;20121;-75
2023/10/06 08:42:56;;;;;;;16.45;7.93;;;22.20;99.90;;;;;;5055561;28;20495;-75
2023/10/06 08:45:24;;;;;;;14.43;7.80;;;22.00;99.90;;;;;;5055551;28;20032;-76
2023/10/06 08:47:58;;;;;;;15.10;7.82;;;22.40;99.90;;;;;;5055326;28;20052;-76
2023/10/06 08:50:25;;;;;;;18.77;8.43;;;22.20;99.90;;;;;;5038992;28;20377;-76
2023/10/06 08:52:52;;;;;;;21.95;8.30;;;21.90;99.90;;;;;;5055900;28;20036;-76
2023/10/06 08:55:23;;;;;;;18.33;8.05;;;21.90;99.90;;;;;;5055469;28;20041;-76
2023/10/06 08:57:50;;;;;;;19.27;7.63;;;22.20;99.90;;;;;;5055329;28;20045;-76
2023/10/06 09:00:24;;;;;;;19.58;7.90;;;22.50;99.90;;;;;;5054941;28;20425;-77
2023/10/06 09:02:52;;;;;;;18.27;8.25;;;22.50;99.90;;;;;;5037703;28;20086;-76
2023/10/06 09:05:18;;;;;;;16.67;7.70;;;22.40;99.90;;;;;;5054567;28;20040;-76
2023/10/06 09:08:09;;;;;;;20.90;6.93;;;22.80;99.90;;;;;;5038357;28;20044;-76
2023/10/06 09:10:37;;;;;;;22.52;8.10;;;22.90;99.90;;;;;;5054822;28;20105;-76
2023/10/06 09:13:05;;;;;;;16.02;7.60;;;22.80;99.90;;;;;;5038595;28;20041;-76
2023/10/06 09:15:32;;;;;;;14.77;7.18;;;22.70;99.90;;;;;;5055159;28;20040;-76
2023/10/06 09:17:59;;;;;;;17.77;7.15;;;22.90;99.90;;;;;;5054435;28;20381;-76
2023/10/06 09:20:30;;;;;;;17.27;7.15;;;23.00;99.90;;;;;;5037999;28;20122;-76
2023/10/06 09:22:56;;;;;;;14.82;6.95;;;22.30;99.90;;;;;;5054673;28;20508;-76
2023/10/06 09:25:21;;;;;;;26.98;8.88;;;22.70;99.90;;;;;;5037969;28;20071;-76
2023/10/06 09:27:48;;;;;;;20.73;7.55;;;22.20;99.90;;;;;;5038169;28;20412;-77
2023/10/06 09:30:20;;;;;;;16.48;7.15;;;22.40;99.90;;;;;;5054715;28;20088;-77
2023/10/06 09:32:46;;;;;;;13.98;6.60;;;22.70;99.90;;;;;;5054592;28;20040;-77
2023/10/06 09:35:22;;;;;;;19.67;8.05;;;22.80;99.90;;;;;;5054892;28;20047;-77
2023/10/06 09:37:51;;;;;;;18.60;6.53;;;22.80;99.90;;;;;;5053620;28;20036;-77
2023/10/06 09:40:32;;;;;;;21.98;7.30;;;22.90;99.90;;;;;;5038112;28;20059;-77
2023/10/06 09:42:58;;;;;;;25.73;8.07;;;22.80;99.90;;;;;;5055620;28;20040;-77
2023/10/06 09:45:29;;;;;;;20.55;7.88;;;23.20;99.90;;;;;;5040907;28;20036;-77
2023/10/06 09:47:59;;;;;;;18.63;7.38;;;22.60;99.90;;;;;;5058357;28;20044;-77
2023/10/06 09:50:26;;;;;;;18.77;7.25;;;23.00;99.90;;;;;;5038329;28;20041;-77
2023/10/06 09:52:52;;;;;;;21.17;7.45;;;22.80;99.90;;;;;;5054359;28;20171;-77
2023/10/06 09:55:21;;;;;;;17.45;7.00;;;22.90;99.90;;;;;;5037699;28;20040;-77
2023/10/06 09:57:50;;;;;;;17.35;7.07;;;23.00;99.90;;;;;;5054363;28;20044;-77
2023/10/06 10:00:18;;;;;;;17.92;7.80;;;22.90;99.90;;;;;;5038161;28;20121;-77
2023/10/06 10:02:48;;;;;;;14.75;6.35;;;23.00;99.90;;;;;;5053521;28;20492;-77
2023/10/06 10:05:18;;;;;;;20.90;6.18;;;23.10;99.90;;;;;;5053518;28;20054;-77
2023/10/06 10:07:46;;;;;;;16.35;6.68;;;23.50;99.90;;;;;;5037099;28;20041;-77
2023/10/06 10:10:13;;;;;;;21.92;7.13;;;23.30;99.90;;;;;;5054010;28;20070;-77
2023/10/06 10:12:59;;;;;;;15.48;6.35;;;22.90;99.90;;;;;;5053613;28;20047;-76
2023/10/06 10:16:01;;;;;;;18.30;6.22;;;22.90;99.90;;;;;;5033825;28;20033;-77
2023/10/06 10:18:56;;;;;;;14.25;5.93;;;23.10;99.90;;;;;;4976735;28;20524;-77
2023/10/06 10:21:23;;;;;;;20.02;7.30;;;23.80;99.90;;;;;;5044591;28;20086;-77
2023/10/06 10:23:48;;;;;;;24.13;8.00;;;23.70;99.90;;;;;;5036724;28;20036;-77
2023/10/06 10:26:20;;;;;;;16.60;6.03;;;23.30;99.90;;;;;;5034295;28;20413;-77
2023/10/06 10:29:17;;;;;;;21.25;6.07;;;23.80;99.90;;;;;;5054195;28;20441;-77
2023/10/06 10:31:57;;;;;;;17.83;5.82;;;24.00;99.90;;;;;;5054229;28;20044;-77
2023/10/06 10:34:25;;;;;;;15.95;5.88;;;;;;;;;;5056234;28;20036;-77
2023/10/06 10:36:54;;;;;;;16.33;5.15;;;24.10;99.90;;;;;;5042960;28;20164;-78
2023/10/06 10:39:22;;;;;;;15.68;5.57;;;24.20;99.90;;;;;;5057371;28;20043;-77
2023/10/06 10:41:47;;;;;;;19.52;5.78;;;24.30;99.90;;;;;;5058344;28;20460;-78
2023/10/06 10:44:17;;;;;;;17.23;6.10;;;23.80;99.90;;;;;;5053763;28;20071;-78
2023/10/06 10:46:52;;;;;;;13.80;5.75;;;24.40;99.90;;;;;;5037758;28;20083;-78
2023/10/06 10:49:20;;;;;;;15.00;5.13;;;24.20;99.90;;;;;;5064976;28;20052;-79
2023/10/06 10:51:51;;;;;;;17.00;6.07;;;24.40;99.90;;;;;;5056283;28;20041;-78
2023/10/06 10:54:26;;;;;;;17.48;4.90;;;24.40;99.90;;;;;;5087155;28;20041;-78
2023/10/06 10:56:53;;;;;;;18.10;5.32;;;24.40;99.90;;;;;;5067984;28;20066;-78
2023/10/06 10:59:21;;;;;;;14.50;4.80;;;25.40;99.90;;;;;;5069011;28;20055;-77
2023/10/06 11:01:53;;;;;;;12.27;4.95;;;24.80;99.90;;;;;;5039065;28;20519;-78
2023/10/06 11:04:30;;;;;;;21.42;5.07;;;24.60;99.90;;;;;;5040929;28;20048;-77
2023/10/06 11:07:01;;;;;;;17.20;5.55;;;24.40;99.90;;;;;;5050546;28;20419;-77
2023/10/06 11:09:40;;;;;;;20.33;5.85;;;25.40;99.90;;;;;;5025896;28;20107;-77
2023/10/06 11:12:24;;;;;;;16.08;5.07;;;24.40;99.90;;;;;;5039226;28;20036;-77
2023/10/06 11:14:55;;;;;;;15.93;4.78;;;24.40;99.90;;;;;;5043628;28;20036;-77
2023/10/06 11:17:29;;;;;;;14.30;3.92;;;24.80;99.90;;;;;;5042068;28;20115;-78
2023/10/06 11:20:12;;;;;;;19.15;4.10;;;24.40;99.90;;;;;;5044014;28;20040;-78
2023/10/06 11:22:38;;;;;;;;;;;24.80;99.90;;;;;;5038915;28;20068;-78
2023/10/06 11:25:06;;;;;;;14.55;4.10;;;24.40;99.90;;;;;;5053142;28;19959;-79
2023/10/06 11:27:32;;;;;;;19.30;3.95;;;25.10;99.90;;;;;;5033346;28;20068;-78
2023/10/06 11:29:59;;;;;;;13.30;3.78;;;24.90;99.90;;;;;;5043345;28;20048;-78
2023/10/06 11:32:28;;;;;;;11.63;4.03;;;25.00;99.90;;;;;;5042953;28;20459;-78
2023/10/06 11:34:54;;;;;;;14.50;4.28;;;25.00;99.90;;;;;;5041443;28;20088;-78
2023/10/06 11:37:24;;;;;;;14.45;3.30;;;25.10;99.90;;;;;;5035829;28;20094;-78
2023/10/06 11:39:53;;;;;;;13.20;3.42;;;24.80;99.90;;;;;;5047242;28;20044;-78
2023/10/06 11:42:25;;;;;;;23.48;5.13;;;25.10;99.90;;;;;;5029352;28;20462;-78
2023/10/06 11:44:54;;;;;;;16.92;4.43;;;24.30;99.90;;;;;;5038406;28;20044;-78
2023/10/06 11:47:22;;;;;;;15.85;5.20;;;25.50;99.90;;;;;;5053305;28;20424;-77
2023/10/06 11:49:54;;;;;;;12.40;3.30;;;25.30;99.90;;;;;;5021402;28;20124;-77
2023/10/06 11:52:20;;;;;;;13.65;4.30;;;25.40;99.90;;;;;;5026057;28;20036;-79
2023/10/06 11:54:49;;;;;;;17.90;5.05;;;25.30;99.90;;;;;;5047333;28;20070;-78
2023/10/06 11:57:15;;;;;;;18.17;4.53;;;25.40;99.90;;;;;;5062415;28;20107;-79
2023/10/06 11:59:52;;;;;;;11.95;3.45;;;25.30;99.90;;;;;;5044510;28;20082;-78
2023/10/06 12:02:19;;;;;;;14.35;3.60;;;25.30;99.90;;;;;;5061196;28;20032;-81
2023/10/06 12:04:44;;;;;;;12.95;3.60;;;25.70;99.90;;;;;;5046378;28;20036;-80
2023/10/06 12:07:26;;;;;;;17.90;3.80;;;25.50;99.90;;;;;;5062097;28;20071;-81
2023/10/06 12:10:01;;;;;;;12.95;3.28;;;25.40;99.90;;;;;;5063258;28;20036;-81
2023/10/06 12:12:27;;;;;;;17.02;4.18;;;25.70;99.90;;;;;;5046152;28;20131;-81
2023/10/06 12:14:55;;;;;;;13.15;3.40;;;;;;;;;;5063522;28;20080;-81
2023/10/06 12:17:23;;;;;;;17.33;4.03;;;26.00;99.90;;;;;;5082728;28;20087;-81
2023/10/06 12:19:49;;;;;;;17.23;3.83;;;25.90;99.90;;;;;;5064574;28;20067;-81
2023/10/06 12:22:14;;;;;;;13.65;3.97;;;25.90;99.90;;;;;;5063445;28;20041;-80
2023/10/06 12:24:40;;;;;;;17.38;4.80;;;25.90;99.90;;;;;;5034279;28;20040;-80
2023/10/06 12:27:06;;;;;;;12.65;3.67;;;26.00;99.90;;;;;;5052993;28;20032;-80
2023/10/06 12:29:31;;;;;;;16.15;3.20;;;25.80;99.90;;;;;;5062335;28;20400;-81
2023/10/06 12:31:58;;;;;;;15.25;4.05;;;25.50;99.90;;;;;;5046221;28;20044;-81
2023/10/06 12:34:27;;;;;;;17.55;4.43;;;25.60;99.90;;;;;;5041678;28;20049;-81
2023/10/06 12:37:01;;;;;;;15.15;3.83;;;25.70;99.90;;;;;;5041756;28;20044;-81
2023/10/06 12:39:34;;;;;;;9.95;3.45;;;25.60;99.90;;;;;;5025905;28;20439;-81
2023/10/06 12:42:00;;;;;;;14.57;3.83;;;25.50;99.90;;;;;;5049727;28;20044;-80
2023/10/06 12:44:27;;;;;;;17.40;3.38;;;25.60;99.90;;;;;;5025491;28;20037;-81
2023/10/06 12:46:56;;;;;;;14.05;3.80;;;25.40;99.90;;;;;;5041523;28;20052;-81
2023/10/06 12:49:23;;;;;;;12.75;3.72;;;25.30;99.90;;;;;;5024101;28;20073;-81
2023/10/06 12:51:52;;;;;;;15.40;3.33;;;25.50;99.90;;;;;;5040794;28;20040;-81
2023/10/06 12:54:17;;;;;;;12.98;3.63;;;25.10;99.90;;;;;;5023565;28;20037;-81
2023/10/06 12:56:44;;;;;;;19.55;4.70;;;25.30;99.90;;;;;;5040966;28;20043;-81